Time;durP1;ratioP1;P1;durP2;ratioP2;P2;SDS_P1;SDS_P2;PMS_P1;PMS_P2;Temp;Humidity;BMP_temperature;BMP_pressure;BME280_temperature;BME280_humidity;BME280_pressure;Samples;Min_cycle;Max_cycle;Signal;HPM_P1;HPM_P2
2021/07/31 00:01:47;;;;;;;1.65;0.50;;;16.00;77.10;;;;;;5064357;28;20405;-85
2021/07/31 00:04:13;;;;;;;4.90;0.82;;;16.00;78.40;;;;;;5069748;28;20721;-87
2021/07/31 00:06:40;;;;;;;2.38;0.77;;;15.90;79.50;;;;;;5066450;28;20402;-85
2021/07/31 00:09:07;;;;;;;4.07;0.77;;;16.00;79.70;;;;;;5064284;28;20394;-87
2021/07/31 00:11:34;;;;;;;7.40;0.70;;;16.10;81.90;;;;;;5069465;28;20812;-86
2021/07/31 00:14:02;;;;;;;7.40;1.02;;;16.20;78.50;;;;;;5071175;28;20405;-89
2021/07/31 00:16:29;;;;;;;5.63;0.80;;;16.60;77.70;;;;;;5040130;28;20516;-91
2021/07/31 00:18:56;;;;;;;4.57;0.70;;;17.00;78.10;;;;;;5055177;28;20452;-89
2021/07/31 00:21:23;;;;;;;2.05;0.90;;;17.10;76.50;;;;;;5072390;28;20417;-89
2021/07/31 00:23:50;;;;;;;1.88;0.55;;;17.10;76.10;;;;;;5074417;28;20428;-88
2021/07/31 00:26:17;;;;;;;2.80;0.70;;;17.10;77.20;;;;;;5054118;28;20431;-86
2021/07/31 00:28:44;;;;;;;7.22;1.15;;;17.00;74.50;;;;;;5071482;28;20382;-85
2021/07/31 00:31:11;;;;;;;3.72;0.80;;;17.00;75.10;;;;;;5066766;28;20447;-87
2021/07/31 00:33:38;;;;;;;1.73;0.50;;;16.90;74.40;;;;;;5079709;28;20396;-87
2021/07/31 00:36:05;;;;;;;3.00;0.60;;;17.00;74.00;;;;;;5072228;28;20543;-86
2021/07/31 00:38:32;;;;;;;3.42;0.80;;;17.00;74.70;;;;;;5072145;28;20409;-86
2021/07/31 00:40:59;;;;;;;2.03;0.50;;;17.10;74.00;;;;;;5078762;28;20923;-86
2021/07/31 00:43:26;;;;;;;2.95;0.60;;;17.10;73.30;;;;;;5070006;28;20453;-86
2021/07/31 00:45:53;;;;;;;2.15;0.50;;;17.10;75.70;;;;;;5076119;28;20385;-85
2021/07/31 00:48:20;;;;;;;2.95;0.80;;;17.10;74.40;;;;;;5092189;28;20882;-86
2021/07/31 00:50:48;;;;;;;2.28;0.60;;;17.20;75.30;;;;;;5095922;28;20872;-87
2021/07/31 00:53:15;;;;;;;4.32;1.00;;;17.20;74.20;;;;;;5091257;28;20397;-86
2021/07/31 00:55:42;;;;;;;2.80;0.90;;;17.20;74.50;;;;;;5092325;28;20477;-85
2021/07/31 00:58:09;;;;;;;2.05;0.60;;;17.20;74.50;;;;;;5080632;28;20386;-88
2021/07/31 01:00:36;;;;;;;4.75;0.70;;;17.20;74.60;;;;;;5088665;28;20407;-86
2021/07/31 01:03:03;;;;;;;3.60;1.00;;;17.10;74.00;;;;;;5087928;28;20405;-88
2021/07/31 01:05:31;;;;;;;2.35;0.82;;;17.10;71.50;;;;;;5089941;28;20401;-89
2021/07/31 01:07:58;;;;;;;2.20;0.60;;;17.00;74.50;;;;;;5088882;28;20388;-86
2021/07/31 01:10:25;;;;;;;3.60;0.70;;;16.90;74.90;;;;;;5107341;28;20377;-86
2021/07/31 01:12:54;;;;;;;27.92;2.33;;;16.80;72.90;;;;;;5086580;28;20388;-86
2021/07/31 01:15:21;;;;;;;3.60;0.88;;;16.80;72.80;;;;;;5088855;28;20388;-86
2021/07/31 01:17:48;;;;;;;2.40;0.70;;;16.70;73.10;;;;;;5089555;28;20886;-87
2021/07/31 01:20:15;;;;;;;1.40;0.80;;;16.80;72.90;;;;;;5091543;28;20551;-86
2021/07/31 01:22:42;;;;;;;2.00;0.88;;;16.80;73.30;;;;;;5083963;28;20391;-87
2021/07/31 01:25:09;;;;;;;3.83;0.90;;;16.70;74.80;;;;;;5088751;28;20491;-84
2021/07/31 01:27:38;;;;;;;3.60;0.95;;;16.70;74.30;;;;;;5086755;28;20462;-85
2021/07/31 01:30:05;;;;;;;2.78;0.80;;;16.70;74.00;;;;;;5090678;28;20422;-86
2021/07/31 01:32:32;;;;;;;2.13;0.90;;;16.60;73.40;;;;;;5079494;28;20398;-85
2021/07/31 01:34:59;;;;;;;4.93;0.80;;;16.50;74.00;;;;;;5086692;28;20394;-84
2021/07/31 01:37:26;;;;;;;1.50;0.63;;;16.50;74.20;;;;;;5082949;28;20434;-85
2021/07/31 01:39:53;;;;;;;2.05;0.52;;;16.50;76.20;;;;;;5090813;28;20433;-86
2021/07/31 01:42:21;;;;;;;1.90;0.63;;;16.40;74.40;;;;;;5083527;28;20409;-84
2021/07/31 01:44:48;;;;;;;4.15;0.55;;;16.40;76.90;;;;;;5082084;28;20377;-85
2021/07/31 01:47:15;;;;;;;2.87;0.53;;;16.30;76.10;;;;;;5090223;28;20516;-85
2021/07/31 01:49:41;;;;;;;3.07;0.70;;;16.30;76.20;;;;;;5091197;28;20846;-84
2021/07/31 01:52:09;;;;;;;2.57;0.80;;;16.40;75.90;;;;;;5089547;28;20405;-84
2021/07/31 01:54:36;;;;;;;1.92;0.60;;;16.40;76.20;;;;;;5090029;28;20441;-84
2021/07/31 01:57:03;;;;;;;2.15;0.70;;;16.50;76.80;;;;;;5089531;28;20437;-84
2021/07/31 01:59:30;;;;;;;4.53;0.73;;;16.60;76.70;;;;;;5093153;28;20467;-84
2021/07/31 02:01:57;;;;;;;1.25;0.70;;;16.80;78.10;;;;;;5115571;28;20465;-85
2021/07/31 02:04:36;;;;;;;2.80;0.73;;;17.00;76.10;;;;;;5098341;28;20381;-85
2021/07/31 02:07:04;;;;;;;2.70;0.63;;;17.20;74.70;;;;;;5093058;28;20388;-81
2021/07/31 02:09:31;;;;;;;4.10;0.70;;;17.40;76.30;;;;;;5090249;28;20415;-84
2021/07/31 02:11:58;;;;;;;2.70;0.80;;;17.40;74.60;;;;;;5094144;28;20755;-83
2021/07/31 02:14:25;;;;;;;3.27;0.83;;;17.40;74.80;;;;;;5090586;28;20411;-85
2021/07/31 02:16:52;;;;;;;1.80;0.40;;;17.60;74.40;;;;;;5090314;28;20430;-84
2021/07/31 02:19:19;;;;;;;3.33;0.87;;;17.70;75.20;;;;;;5091031;28;20460;-84
2021/07/31 02:21:46;;;;;;;3.67;0.70;;;17.80;73.40;;;;;;5090244;28;20487;-84
2021/07/31 02:24:15;;;;;;;2.28;0.77;;;17.90;73.50;;;;;;5090790;28;20364;-84
2021/07/31 02:26:42;;;;;;;2.85;0.70;;;18.10;74.60;;;;;;5091074;28;20373;-84
2021/07/31 02:29:09;;;;;;;2.92;0.70;;;18.20;71.80;;;;;;5090203;28;20396;-84
2021/07/31 02:31:36;;;;;;;3.85;0.85;;;18.50;71.90;;;;;;5088944;28;20467;-85
2021/07/31 02:34:04;;;;;;;2.80;0.88;;;18.60;70.90;;;;;;5088355;28;20403;-84
2021/07/31 02:36:32;;;;;;;1.48;0.82;;;18.70;69.20;;;;;;5083307;28;20379;-84
2021/07/31 02:38:59;;;;;;;3.53;0.70;;;18.60;70.70;;;;;;5089875;28;20391;-84
2021/07/31 02:41:26;;;;;;;2.67;1.00;;;18.50;69.90;;;;;;5090182;28;20404;-85
2021/07/31 02:43:53;;;;;;;2.20;0.63;;;18.40;69.10;;;;;;5085385;28;20472;-85
2021/07/31 02:46:20;;;;;;;2.37;0.87;;;18.40;71.60;;;;;;5085584;28;20492;-84
2021/07/31 02:48:46;;;;;;;3.13;0.90;;;18.40;70.30;;;;;;5067848;28;20478;-85
2021/07/31 02:51:17;;;;;;;2.50;0.93;;;18.40;70.90;;;;;;5066882;28;20402;-85
2021/07/31 02:53:44;;;;;;;1.90;0.50;;;18.40;72.00;;;;;;5063997;28;20478;-84
2021/07/31 02:56:11;;;;;;;3.20;0.60;;;18.70;70.20;;;;;;5068325;28;20394;-86
2021/07/31 02:58:38;;;;;;;4.10;0.90;;;18.70;70.50;;;;;;5062746;28;20393;-84
2021/07/31 03:01:10;;;;;;;3.85;0.93;;;18.80;68.70;;;;;;5068078;28;20965;-85
2021/07/31 03:03:37;;;;;;;2.70;0.50;;;19.00;68.40;;;;;;5063340;28;20437;-85
2021/07/31 03:06:04;;;;;;;2.22;0.85;;;19.10;68.90;;;;;;5066679;28;20838;-83
2021/07/31 03:08:31;;;;;;;4.32;0.80;;;19.10;70.40;;;;;;5065664;28;20385;-85
2021/07/31 03:11:07;;;;;;;2.75;0.63;;;19.10;68.40;;;;;;5070291;28;20394;-84
2021/07/31 03:13:34;;;;;;;4.40;0.90;;;19.00;69.00;;;;;;5066475;28;20392;-83
2021/07/31 03:16:01;;;;;;;3.25;0.75;;;19.00;69.60;;;;;;5059149;28;20388;-86
2021/07/31 03:18:28;;;;;;;1.38;0.70;;;19.10;71.60;;;;;;5067694;28;20416;-85
2021/07/31 03:20:56;;;;;;;1.27;0.50;;;19.20;70.00;;;;;;5060925;28;20412;-83
2021/07/31 03:23:24;;;;;;;1.20;0.68;;;19.20;72.00;;;;;;5062381;28;20892;-84
2021/07/31 03:25:57;;;;;;;3.53;0.70;;;19.20;71.30;;;;;;5063735;28;20412;-84
2021/07/31 03:28:25;;;;;;;1.87;0.77;;;19.30;71.50;;;;;;5067111;28;20393;-84
2021/07/31 03:30:52;;;;;;;1.58;0.63;;;19.30;72.60;;;;;;5067784;28;20404;-84
2021/07/31 03:33:19;;;;;;;1.80;0.70;;;19.20;70.80;;;;;;5070178;28;20413;-84
2021/07/31 03:35:46;;;;;;;1.70;0.60;;;19.20;72.70;;;;;;5051079;28;20404;-84
2021/07/31 03:38:13;;;;;;;3.13;0.63;;;19.00;72.10;;;;;;5050677;28;20374;-84
2021/07/31 03:40:40;;;;;;;1.63;0.47;;;19.00;72.80;;;;;;5067813;28;20410;-85
2021/07/31 03:43:07;;;;;;;2.70;0.80;;;19.10;73.70;;;;;;5066993;28;20393;-84
2021/07/31 03:45:34;;;;;;;2.50;0.70;;;19.10;72.40;;;;;;5066200;28;20433;-85
2021/07/31 03:48:01;;;;;;;1.45;0.50;;;19.10;71.50;;;;;;5065019;28;20409;-84
2021/07/31 03:50:28;;;;;;;2.58;0.70;;;19.20;71.70;;;;;;5073109;28;20404;-84
2021/07/31 03:52:55;;;;;;;4.15;0.73;;;19.20;71.40;;;;;;5067819;28;20484;-84
2021/07/31 03:55:23;;;;;;;2.88;0.60;;;19.10;71.70;;;;;;5069179;28;20455;-84
2021/07/31 03:57:50;;;;;;;3.95;0.50;;;19.00;72.20;;;;;;5067012;28;20907;-84
2021/07/31 04:00:18;;;;;;;1.93;0.60;;;18.90;73.00;;;;;;5066538;28;20379;-85
2021/07/31 04:02:44;;;;;;;2.45;0.50;;;19.00;73.40;;;;;;5066995;28;21045;-80
2021/07/31 04:05:11;;;;;;;2.65;0.63;;;19.00;73.00;;;;;;5067477;28;20417;-82
2021/07/31 04:07:38;;;;;;;3.53;0.50;;;19.00;74.50;;;;;;5067409;28;20426;-86
2021/07/31 04:10:06;;;;;;;1.27;0.60;;;19.10;72.70;;;;;;5068199;28;20454;-83
2021/07/31 04:12:33;;;;;;;0.90;0.50;;;19.30;73.10;;;;;;5067483;28;20446;-83
2021/07/31 04:15:00;;;;;;;3.08;0.57;;;19.40;72.80;;;;;;5067823;28;20951;-83
2021/07/31 04:17:27;;;;;;;2.17;0.70;;;19.30;74.30;;;;;;5066469;28;20880;-84
2021/07/31 04:19:54;;;;;;;1.33;0.52;;;19.20;75.30;;;;;;5066509;28;20417;-83
2021/07/31 04:22:21;;;;;;;2.08;0.60;;;19.10;75.00;;;;;;5067308;28;20378;-92
2021/07/31 04:24:52;;;;;;;2.70;0.50;;;19.20;74.80;;;;;;5074129;28;20430;-83
2021/07/31 04:27:20;;;;;;;3.17;0.60;;;19.20;75.60;;;;;;5072215;28;20401;-84
2021/07/31 04:29:47;;;;;;;7.35;0.70;;;19.30;76.10;;;;;;5048186;28;20410;-85
2021/07/31 04:32:14;;;;;;;1.50;0.50;;;19.30;74.70;;;;;;5070132;28;20428;-85
2021/07/31 04:34:41;;;;;;;2.30;0.50;;;19.40;74.70;;;;;;5064378;28;20822;-84
2021/07/31 04:37:08;;;;;;;2.10;0.80;;;19.40;74.90;;;;;;5071227;28;20748;-85
2021/07/31 04:39:38;;;;;;;3.47;0.80;;;19.50;74.00;;;;;;5077512;28;20387;-88
2021/07/31 04:42:05;;;;;;;2.83;0.77;;;19.60;72.90;;;;;;5068310;28;22023;-86
2021/07/31 04:44:32;;;;;;;2.30;0.52;;;19.60;73.10;;;;;;5067113;28;20413;-85
2021/07/31 04:46:59;;;;;;;2.30;0.60;;;19.60;74.70;;;;;;5076990;28;20919;-85
2021/07/31 04:49:26;;;;;;;2.22;0.47;;;19.60;74.00;;;;;;5072351;28;20394;-84
2021/07/31 04:51:53;;;;;;;1.10;0.43;;;19.60;71.60;;;;;;5070905;28;20442;-86
2021/07/31 04:54:20;;;;;;;1.95;0.50;;;19.50;72.20;;;;;;5083366;28;20516;-84
2021/07/31 04:56:47;;;;;;;1.05;0.45;;;19.60;72.80;;;;;;5080123;28;20394;-87
2021/07/31 04:59:24;;;;;;;2.65;0.70;;;19.60;71.10;;;;;;5077151;28;20413;-89
2021/07/31 05:02:01;;;;;;;5.82;0.45;;;19.60;71.50;;;;;;5076983;28;22161;-91
2021/07/31 05:04:31;;;;;;;4.82;0.50;;;19.60;73.00;;;;;;5059758;28;20382;-87
2021/07/31 05:06:59;;;;;;;2.75;0.47;;;19.60;71.80;;;;;;5080038;28;20400;-86
2021/07/31 05:09:26;;;;;;;2.78;0.43;;;19.60;71.50;;;;;;5069620;28;20875;-84
2021/07/31 05:11:53;;;;;;;3.63;0.55;;;19.50;72.70;;;;;;5088508;28;20400;-83
2021/07/31 05:14:20;;;;;;;1.00;0.50;;;19.50;71.90;;;;;;5081942;28;20468;-85
2021/07/31 05:16:51;;;;;;;2.30;0.65;;;19.10;73.60;;;;;;5090168;28;20383;-86
2021/07/31 05:19:17;;;;;;;3.22;0.70;;;19.10;74.40;;;;;;5094009;28;20382;-85
2021/07/31 05:21:45;;;;;;;2.55;0.60;;;19.00;75.10;;;;;;5071764;28;20405;-87
2021/07/31 05:24:12;;;;;;;4.63;0.70;;;19.00;75.40;;;;;;5060498;28;20429;-86
2021/07/31 05:26:40;;;;;;;1.55;0.50;;;19.00;74.40;;;;;;5059511;28;20424;-85
2021/07/31 05:29:08;;;;;;;2.60;0.50;;;19.00;74.90;;;;;;5076565;28;20427;-85
2021/07/31 05:31:35;;;;;;;2.07;0.77;;;19.00;75.30;;;;;;5078277;28;20381;-84
2021/07/31 05:34:02;;;;;;;1.85;0.60;;;19.00;75.50;;;;;;5077925;28;20412;-86
2021/07/31 05:36:34;;;;;;;5.10;0.75;;;19.00;74.80;;;;;;5077942;28;20378;-86
2021/07/31 05:39:02;;;;;;;2.22;1.15;;;19.00;75.10;;;;;;5079033;28;20386;-85
2021/07/31 05:41:29;;;;;;;3.33;1.00;;;19.00;76.20;;;;;;5080336;28;20734;-85
2021/07/31 05:43:56;;;;;;;2.67;0.68;;;19.00;76.50;;;;;;5055744;28;20392;-85
2021/07/31 05:46:23;;;;;;;2.80;0.98;;;19.10;75.50;;;;;;5079669;28;20401;-86
2021/07/31 05:48:52;;;;;;;4.40;1.00;;;19.20;75.30;;;;;;5061339;28;20382;-85
2021/07/31 05:51:19;;;;;;;1.88;0.70;;;19.20;76.40;;;;;;5079777;28;20394;-85
2021/07/31 05:53:46;;;;;;;2.70;1.40;;;19.30;76.30;;;;;;5064830;28;20377;-86
2021/07/31 05:56:15;;;;;;;3.58;1.65;;;19.30;77.20;;;;;;5076234;28;20380;-87
2021/07/31 05:58:42;;;;;;;2.87;0.63;;;19.30;76.00;;;;;;5070283;28;20405;-86
2021/07/31 06:01:10;;;;;;;4.30;0.77;;;19.40;75.20;;;;;;5080086;28;20398;-87
2021/07/31 06:03:38;;;;;;;9.38;7.82;;;19.40;75.80;;;;;;5083799;28;20417;-86
2021/07/31 06:06:05;;;;;;;4.82;3.20;;;19.50;74.60;;;;;;5080030;28;20401;-85
2021/07/31 06:08:32;;;;;;;10.68;2.38;;;19.50;76.00;;;;;;5084280;28;20401;-87
2021/07/31 06:11:06;;;;;;;6.78;1.60;;;19.40;76.20;;;;;;5091247;28;20405;-87
2021/07/31 06:13:34;;;;;;;3.58;1.63;;;19.40;76.30;;;;;;5086674;28;20386;-86
2021/07/31 06:16:01;;;;;;;10.13;7.10;;;19.40;76.10;;;;;;5085207;28;20397;-88
2021/07/31 06:18:28;;;;;;;2.90;0.90;;;19.40;76.20;;;;;;5083361;28;20402;-87
2021/07/31 06:20:57;;;;;;;3.10;1.40;;;19.40;75.10;;;;;;5065828;28;20422;-83
2021/07/31 06:26:51;;;;;;;3.27;1.17;;;19.30;76.10;;;;;;4917027;28;20484;-88
2021/07/31 06:29:18;;;;;;;4.30;2.58;;;19.30;76.90;;;;;;5068024;28;20402;-89
2021/07/31 06:31:46;;;;;;;4.03;1.80;;;19.20;78.50;;;;;;5064086;28;20389;-89
2021/07/31 06:34:13;;;;;;;4.70;1.25;;;19.20;77.80;;;;;;5064194;28;20377;-88
2021/07/31 06:36:42;;;;;;;3.05;1.02;;;19.10;76.80;;;;;;5082543;28;20375;-87
2021/07/31 06:39:10;;;;;;;3.88;1.15;;;19.10;77.40;;;;;;5075457;28;20455;-86
2021/07/31 06:41:37;;;;;;;2.90;1.48;;;19.10;77.50;;;;;;5081301;28;20417;-89
2021/07/31 06:44:04;;;;;;;2.45;1.10;;;19.10;76.40;;;;;;5088949;28;20392;-89
2021/07/31 06:46:31;;;;;;;4.47;2.15;;;19.10;76.50;;;;;;5114980;28;20531;-87
2021/07/31 06:49:01;;;;;;;3.80;3.03;;;19.00;77.50;;;;;;5120773;28;20371;-89
2021/07/31 06:51:28;;;;;;;5.13;2.60;;;19.00;77.50;;;;;;5120014;28;20373;-88
2021/07/31 06:53:58;;;;;;;3.50;1.83;;;18.90;78.20;;;;;;5101976;28;20418;-88
2021/07/31 06:56:25;;;;;;;4.40;1.90;;;18.80;78.60;;;;;;5102854;28;20399;-88
2021/07/31 06:58:52;;;;;;;8.23;5.65;;;18.80;78.10;;;;;;5122812;28;20375;-88
2021/07/31 07:01:19;;;;;;;4.97;2.13;;;18.70;78.90;;;;;;5121064;28;20402;-87
2021/07/31 07:03:49;;;;;;;14.45;12.35;;;18.70;78.20;;;;;;5077895;28;20490;-87
2021/07/31 07:06:16;;;;;;;8.52;7.00;;;18.60;79.10;;;;;;5093858;28;20411;-88
2021/07/31 07:08:43;;;;;;;7.50;5.60;;;18.50;79.40;;;;;;5092764;28;20731;-89
2021/07/31 07:11:14;;;;;;;3.05;1.40;;;18.40;79.60;;;;;;5083483;28;20415;-87
2021/07/31 07:13:42;;;;;;;4.25;1.25;;;18.30;79.20;;;;;;5085539;28;20525;-85
2021/07/31 07:16:09;;;;;;;6.47;1.35;;;18.20;79.20;;;;;;5085657;28;20395;-87
2021/07/31 07:18:43;;;;;;;3.53;1.00;;;18.10;80.10;;;;;;5091561;28;20414;-86
2021/07/31 07:21:11;;;;;;;5.57;1.20;;;18.00;80.40;;;;;;5092175;28;20408;-87
2021/07/31 07:23:38;;;;;;;3.45;1.30;;;17.90;80.50;;;;;;5092558;28;20415;-89
2021/07/31 07:26:10;;;;;;;4.20;0.98;;;17.90;81.10;;;;;;5093635;28;20404;-87
2021/07/31 07:28:38;;;;;;;5.07;1.27;;;17.80;80.70;;;;;;5088656;28;20423;-89
2021/07/31 07:31:10;;;;;;;3.30;1.60;;;17.70;81.50;;;;;;5091108;28;20425;-87
2021/07/31 07:33:41;;;;;;;3.83;2.25;;;17.70;81.10;;;;;;5091495;28;20394;-88
2021/07/31 07:36:16;;;;;;;2.80;1.63;;;17.60;81.50;;;;;;5088967;28;20415;-88
2021/07/31 07:38:44;;;;;;;3.40;1.97;;;17.50;81.60;;;;;;5087477;28;20415;-87
2021/07/31 07:41:12;;;;;;;4.50;2.17;;;17.50;81.80;;;;;;5092053;28;20408;-90
2021/07/31 07:43:40;;;;;;;5.65;2.17;;;17.40;82.60;;;;;;5087895;28;20396;-89
2021/07/31 07:46:11;;;;;;;3.60;2.05;;;17.40;82.00;;;;;;5081213;28;20414;-88
2021/07/31 07:48:38;;;;;;;4.75;1.65;;;17.40;82.00;;;;;;5069310;28;20393;-86
2021/07/31 07:51:06;;;;;;;4.63;2.53;;;17.40;82.10;;;;;;5068930;28;20410;-89
2021/07/31 07:53:32;;;;;;;5.65;3.83;;;17.40;81.70;;;;;;5069409;28;20390;-88
2021/07/31 07:55:59;;;;;;;10.15;4.50;;;17.30;82.10;;;;;;5072360;28;20431;-88
2021/07/31 07:58:26;;;;;;;5.18;3.08;;;17.30;83.00;;;;;;5067356;28;20398;-88
2021/07/31 08:00:53;;;;;;;4.78;2.20;;;17.20;82.70;;;;;;5067872;28;20432;-87
2021/07/31 08:03:20;;;;;;;4.50;2.20;;;17.30;82.60;;;;;;5066039;28;20386;-86
2021/07/31 08:05:48;;;;;;;47.15;28.05;;;17.30;82.90;;;;;;5067156;28;20505;-85
2021/07/31 08:08:18;;;;;;;22.45;13.38;;;17.20;83.20;;;;;;5067452;28;20396;-85
2021/07/31 08:10:44;;;;;;;14.87;8.67;;;17.10;83.40;;;;;;5076742;28;20388;-84
2021/07/31 08:13:11;;;;;;;15.17;9.33;;;17.10;84.50;;;;;;5070688;28;20469;-85
2021/07/31 08:15:41;;;;;;;4.10;2.80;;;16.90;85.20;;;;;;5068845;28;20386;-84
2021/07/31 08:18:08;;;;;;;4.82;1.70;;;16.80;86.90;;;;;;5070547;28;20401;-84
2021/07/31 08:20:36;;;;;;;5.78;1.83;;;16.70;88.30;;;;;;5070701;28;20398;-85
2021/07/31 08:23:03;;;;;;;4.43;1.80;;;16.60;89.20;;;;;;5068492;28;20394;-85
2021/07/31 08:25:31;;;;;;;5.13;1.90;;;16.50;90.50;;;;;;5069185;28;20915;-84
2021/07/31 08:27:57;;;;;;;5.90;2.03;;;16.50;91.00;;;;;;5074304;28;20402;-84
2021/07/31 08:30:24;;;;;;;2.47;1.60;;;16.40;91.70;;;;;;5065328;28;20469;-84
2021/07/31 08:32:51;;;;;;;3.35;1.73;;;16.30;92.60;;;;;;5067965;28;22064;-84
2021/07/31 08:35:18;;;;;;;4.05;1.52;;;16.40;93.00;;;;;;5068916;28;20393;-86
2021/07/31 08:37:45;;;;;;;5.82;1.90;;;16.40;93.40;;;;;;5069331;28;20458;-86
2021/07/31 08:40:13;;;;;;;6.30;2.17;;;16.30;93.70;;;;;;5069294;28;20536;-89
2021/07/31 08:42:44;;;;;;;5.47;2.30;;;16.30;94.20;;;;;;5066073;28;20421;-92
2021/07/31 08:45:12;;;;;;;2.75;2.05;;;16.20;94.80;;;;;;5049869;28;20394;-90
2021/07/31 08:47:40;;;;;;;4.53;2.17;;;16.10;95.10;;;;;;5064941;28;20486;-90
2021/07/31 08:50:10;;;;;;;7.00;2.40;;;16.10;95.60;;;;;;5070435;28;20426;-91
2021/07/31 08:52:37;;;;;;;6.50;2.10;;;16.10;96.40;;;;;;5069236;28;20398;-90
2021/07/31 08:55:05;;;;;;;5.78;1.90;;;16.00;96.90;;;;;;5075348;28;20394;-89
2021/07/31 08:57:32;;;;;;;6.57;2.03;;;15.90;97.20;;;;;;5051455;28;20417;-85
2021/07/31 08:59:59;;;;;;;3.92;1.85;;;15.90;97.60;;;;;;5069790;28;20402;-90
2021/07/31 09:02:41;;;;;;;7.68;2.03;;;15.80;98.30;;;;;;5067608;28;20991;-87
2021/07/31 09:05:10;;;;;;;5.25;1.80;;;15.80;98.50;;;;;;5070074;28;20394;-87
2021/07/31 09:07:38;;;;;;;4.45;2.25;;;15.80;99.10;;;;;;5070182;28;20763;-87
2021/07/31 09:10:32;;;;;;;4.47;2.25;;;15.70;99.60;;;;;;5063172;28;20896;-86
2021/07/31 09:13:01;;;;;;;5.95;2.00;;;15.70;99.90;;;;;;5060556;28;20416;-86
2021/07/31 09:15:33;;;;;;;5.50;1.70;;;15.60;99.90;;;;;;5064103;28;20539;-85
2021/07/31 09:18:18;;;;;;;5.67;2.13;;;15.50;99.90;;;;;;5067488;28;20398;-86
2021/07/31 09:20:53;;;;;;;5.15;2.20;;;15.50;99.90;;;;;;5066216;28;20444;-85
2021/07/31 09:23:20;;;;;;;5.30;2.10;;;15.40;99.90;;;;;;5062327;28;20425;-86
2021/07/31 09:26:00;;;;;;;8.70;2.20;;;15.40;99.90;;;;;;5062777;28;20446;-85
2021/07/31 09:28:28;;;;;;;4.55;2.17;;;15.40;99.90;;;;;;5062986;28;20481;-85
2021/07/31 09:30:55;;;;;;;4.70;2.13;;;15.40;99.90;;;;;;5065215;28;20825;-86
2021/07/31 09:33:22;;;;;;;5.60;2.22;;;15.30;99.90;;;;;;5064964;28;20455;-86
2021/07/31 09:36:00;;;;;;;4.17;2.30;;;15.30;99.90;;;;;;5063002;28;20661;-86
2021/07/31 09:38:40;;;;;;;4.50;1.90;;;15.30;99.90;;;;;;5049755;28;20935;-86
2021/07/31 09:41:32;;;;;;;7.60;1.90;;;15.30;99.90;;;;;;5068764;28;20509;-86
2021/07/31 09:44:02;;;;;;;4.60;1.73;;;15.30;99.90;;;;;;5046893;28;20433;-85
2021/07/31 09:46:45;;;;;;;5.25;1.88;;;15.20;99.90;;;;;;5066146;28;20417;-87
2021/07/31 09:49:17;;;;;;;4.82;1.90;;;15.20;99.90;;;;;;5052668;28;20413;-87
2021/07/31 09:51:49;;;;;;;5.97;1.85;;;15.10;99.90;;;;;;5067009;28;20498;-88
2021/07/31 09:54:19;;;;;;;4.82;1.80;;;15.10;99.90;;;;;;5063582;28;20430;-87
2021/07/31 09:56:49;;;;;;;4.20;2.00;;;15.10;99.90;;;;;;5061598;28;20529;-88
2021/07/31 09:59:21;;;;;;;4.78;2.33;;;15.10;99.90;;;;;;5049815;28;20961;-88
2021/07/31 10:01:57;;;;;;;6.05;2.25;;;15.00;99.90;;;;;;5069803;28;20449;-87
2021/07/31 10:04:24;;;;;;;6.15;1.73;;;14.90;99.90;;;;;;5068534;28;20932;-88
2021/07/31 10:06:52;;;;;;;7.50;2.20;;;14.90;99.90;;;;;;5064295;28;20401;-88
2021/07/31 10:09:20;;;;;;;3.88;1.67;;;14.90;99.90;;;;;;5067676;28;20381;-88
2021/07/31 10:11:47;;;;;;;4.32;1.60;;;15.00;99.90;;;;;;5063495;28;20540;-88
2021/07/31 10:14:14;;;;;;;3.72;2.03;;;14.90;99.90;;;;;;5066252;28;20979;-89
2021/07/31 10:16:48;;;;;;;3.97;1.58;;;15.00;99.90;;;;;;5065121;28;21014;-88
2021/07/31 10:19:16;;;;;;;5.18;1.63;;;15.00;99.90;;;;;;5062993;28;20402;-87
2021/07/31 10:21:47;;;;;;;8.32;2.28;;;15.00;99.90;;;;;;5061592;28;20497;-88
2021/07/31 10:24:14;;;;;;;5.55;1.70;;;15.00;99.90;;;;;;5062108;28;20398;-88
2021/07/31 10:27:16;;;;;;;4.57;1.80;;;14.90;99.90;;;;;;5061750;28;20400;-87
2021/07/31 10:29:45;;;;;;;7.43;1.77;;;14.90;99.90;;;;;;5063793;28;20390;-87
2021/07/31 10:32:21;;;;;;;5.07;1.50;;;14.90;99.90;;;;;;5063734;28;20491;-88
2021/07/31 10:35:00;;;;;;;4.50;1.63;;;14.80;99.90;;;;;;5065092;28;20478;-87
2021/07/31 10:37:34;;;;;;;3.92;1.45;;;14.80;99.90;;;;;;5068891;28;20418;-87
2021/07/31 10:40:09;;;;;;;5.57;1.60;;;14.80;99.90;;;;;;5067373;28;20401;-88
2021/07/31 10:42:49;;;;;;;3.17;1.63;;;14.80;99.90;;;;;;5079867;28;20845;-88
2021/07/31 10:45:22;;;;;;;5.03;1.70;;;14.80;99.90;;;;;;5073241;28;20970;-88
2021/07/31 10:47:51;;;;;;;4.65;1.52;;;14.80;99.90;;;;;;5069507;28;20394;-87
2021/07/31 10:50:25;;;;;;;4.07;1.55;;;14.80;99.90;;;;;;5069632;28;20806;-88
2021/07/31 10:53:03;;;;;;;3.15;1.80;;;14.70;99.90;;;;;;5069594;28;20438;-88
2021/07/31 10:55:39;;;;;;;6.43;1.95;;;14.60;99.90;;;;;;5068144;28;20485;-88
2021/07/31 10:58:19;;;;;;;2.83;1.85;;;14.50;99.90;;;;;;5068822;28;20464;-87
2021/07/31 11:00:53;;;;;;;5.72;2.28;;;14.40;99.90;;;;;;5070593;28;20942;-89
2021/07/31 11:03:21;;;;;;;4.47;1.92;;;14.30;99.90;;;;;;5074805;28;20394;-91
2021/07/31 11:05:51;;;;;;;3.67;1.95;;;14.20;99.90;;;;;;5067043;28;20406;-88
2021/07/31 11:08:19;;;;;;;6.95;1.90;;;14.20;99.90;;;;;;5062738;28;20387;-88
2021/07/31 11:10:47;;;;;;;7.30;1.90;;;14.10;99.90;;;;;;5067524;28;20398;-88
2021/07/31 11:13:34;;;;;;;5.80;1.75;;;14.10;99.90;;;;;;5081505;28;20390;-88
2021/07/31 11:16:26;;;;;;;10.30;2.10;;;14.10;99.90;;;;;;5063106;28;20446;-88
2021/07/31 11:18:54;;;;;;;7.10;1.90;;;14.00;99.90;;;;;;5048082;28;20746;-88
2021/07/31 11:21:26;;;;;;;4.78;1.67;;;13.90;99.90;;;;;;5067579;28;20409;-88
2021/07/31 11:24:11;;;;;;;5.38;2.30;;;13.90;99.90;;;;;;5073356;28;20443;-88
2021/07/31 11:26:52;;;;;;;3.37;1.80;;;13.80;99.90;;;;;;5070275;28;20943;-88
2021/07/31 11:29:20;;;;;;;6.28;2.50;;;13.80;99.90;;;;;;5065514;28;20477;-87
2021/07/31 11:32:11;;;;;;;4.25;2.40;;;13.70;99.90;;;;;;5072280;28;20477;-89
2021/07/31 11:34:45;;;;;;;6.18;2.78;;;13.70;99.90;;;;;;5064014;28;20766;-86
2021/07/31 11:37:13;;;;;;;4.93;2.85;;;13.70;99.90;;;;;;5063610;28;20899;-87
2021/07/31 11:39:41;;;;;;;6.03;3.35;;;13.70;99.90;;;;;;5067383;28;20920;-87
2021/07/31 11:42:08;;;;;;;7.32;3.35;;;13.70;99.90;;;;;;5069522;28;20458;-88
2021/07/31 11:44:41;;;;;;;5.65;2.50;;;13.60;99.90;;;;;;5067678;28;20386;-87
2021/07/31 11:47:08;;;;;;;4.70;2.75;;;13.70;99.90;;;;;;5039323;28;20406;-87
2021/07/31 11:49:37;;;;;;;6.30;2.50;;;13.70;99.90;;;;;;5070540;28;20466;-87
2021/07/31 11:52:06;;;;;;;5.47;3.03;;;13.70;99.90;;;;;;5069763;28;21366;-88
2021/07/31 11:54:38;;;;;;;5.35;2.33;;;13.70;99.90;;;;;;5067876;28;20383;-86
2021/07/31 11:57:05;;;;;;;3.95;2.30;;;13.70;99.90;;;;;;5069567;28;20406;-87
2021/07/31 11:59:34;;;;;;;4.20;2.25;;;13.80;99.90;;;;;;5064235;28;20402;-88
2021/07/31 12:02:02;;;;;;;4.32;2.25;;;13.90;99.90;;;;;;5067814;28;20434;-87
2021/07/31 12:04:42;;;;;;;3.78;2.00;;;13.90;99.90;;;;;;5084680;28;20503;-88
2021/07/31 12:07:13;;;;;;;6.43;2.67;;;13.90;99.90;;;;;;5072332;28;20386;-90
2021/07/31 12:09:44;;;;;;;3.97;2.13;;;13.90;99.90;;;;;;5073007;28;20778;-89
2021/07/31 12:12:25;;;;;;;6.32;2.65;;;13.90;99.90;;;;;;5068280;28;20396;-90
2021/07/31 12:15:26;;;;;;;2.70;1.95;;;13.90;99.90;;;;;;5070859;28;21250;-88
2021/07/31 12:17:57;;;;;;;4.57;1.70;;;13.80;99.90;;;;;;5071021;28;20489;-90
2021/07/31 12:20:41;;;;;;;5.03;1.70;;;13.90;99.90;;;;;;5068027;28;20930;-89
2021/07/31 12:23:11;;;;;;;4.05;1.65;;;14.00;99.90;;;;;;5070931;28;20401;-88
2021/07/31 12:25:58;;;;;;;4.43;1.67;;;14.00;99.90;;;;;;5071492;28;20466;-88
2021/07/31 12:28:54;;;;;;;4.15;1.63;;;14.00;99.90;;;;;;5065980;28;20400;-88
2021/07/31 12:31:29;;;;;;;4.88;1.80;;;13.90;99.90;;;;;;5065005;28;20407;-88
2021/07/31 12:33:58;;;;;;;4.43;1.50;;;13.90;99.90;;;;;;5070097;28;20386;-89
2021/07/31 12:36:25;;;;;;;3.42;1.50;;;13.80;99.90;;;;;;5069392;28;22131;-89
2021/07/31 12:38:54;;;;;;;4.90;2.60;;;13.70;99.90;;;;;;5070014;28;20428;-89
2021/07/31 12:41:25;;;;;;;6.05;3.22;;;13.70;99.90;;;;;;5065511;28;20425;-89
2021/07/31 12:43:52;;;;;;;5.20;2.85;;;13.70;99.90;;;;;;5069158;28;20799;-89
2021/07/31 12:46:23;;;;;;;5.05;2.00;;;13.60;99.90;;;;;;5068954;28;20415;-89
2021/07/31 12:48:51;;;;;;;4.50;1.70;;;13.60;99.90;;;;;;5064870;28;20401;-88
2021/07/31 12:51:18;;;;;;;3.58;1.98;;;13.60;99.90;;;;;;5068024;28;20589;-89
2021/07/31 12:53:45;;;;;;;5.50;1.73;;;13.50;99.90;;;;;;5067157;28;20509;-88
2021/07/31 12:56:12;;;;;;;3.07;1.67;;;13.50;99.90;;;;;;5065207;28;21202;-88
2021/07/31 12:58:39;;;;;;;4.25;1.60;;;13.50;99.90;;;;;;5069910;28;20397;-89
2021/07/31 13:01:06;;;;;;;3.13;1.50;;;13.40;99.90;;;;;;5064705;28;20551;-88